createdAt,value
2022-12-07T00:00:02.643Z,1.1
2022-12-07T00:20:03.287Z,1
2022-12-07T00:40:02.440Z,0.8
2022-12-07T01:00:02.694Z,0.7
2022-12-07T01:20:03.185Z,0.6
2022-12-07T01:40:03.314Z,0.4
2022-12-07T02:00:02.679Z,0.3
2022-12-07T02:20:03.367Z,0.2
2022-12-07T02:40:02.777Z,0.1
2022-12-07T03:00:02.944Z,0.1
2022-12-07T03:20:02.883Z,-0.1
2022-12-07T03:40:03.163Z,-0.1
2022-12-07T04:00:02.682Z,-0.2
2022-12-07T04:20:03.161Z,-0.2
2022-12-07T04:40:03.225Z,-0.4
2022-12-07T05:00:02.797Z,-0.5
2022-12-07T05:20:03.408Z,-0.5
2022-12-07T05:40:02.668Z,-0.5
2022-12-07T06:00:02.921Z,-0.5
2022-12-07T06:20:03.247Z,-0.5
2022-12-07T06:40:02.602Z,-0.4
2022-12-07T07:00:02.709Z,-0.2
2022-12-07T07:20:03.450Z,-0.1
2022-12-07T07:40:02.795Z,0.1
2022-12-07T08:00:03.009Z,0.3
2022-12-07T08:20:02.623Z,0.6
2022-12-07T08:40:02.931Z,0.9
2022-12-07T09:00:03.436Z,1.2
2022-12-07T09:20:03.232Z,1.2
2022-12-07T09:40:03.724Z,1.3
2022-12-07T10:00:02.600Z,1.3
2022-12-07T10:20:02.377Z,1.3
2022-12-07T10:40:03.011Z,1.1
2022-12-07T11:00:02.407Z,1.4
2022-12-07T11:20:02.896Z,1.5
2022-12-07T11:40:03.281Z,1.4
2022-12-07T12:00:02.642Z,1.3
2022-12-07T12:20:02.217Z,1.3
2022-12-07T12:40:02.976Z,1.5
2022-12-07T13:00:02.282Z,1.6
2022-12-07T13:20:03.300Z,1.5
2022-12-07T13:40:02.879Z,1.6
2022-12-07T14:00:02.291Z,1.6
2022-12-07T14:20:02.233Z,1.6
2022-12-07T14:40:02.922Z,1.6
2022-12-07T15:00:02.249Z,1.6
2022-12-07T15:20:02.153Z,1.6
2022-12-07T15:40:07.369Z,1.6
2022-12-07T16:00:02.698Z,1.3
2022-12-07T16:20:02.318Z,1.1
2022-12-07T16:40:02.740Z,1.1
2022-12-07T17:00:03.367Z,0.6
2022-12-07T17:20:03.367Z,0.5
2022-12-07T17:40:02.924Z,0.5
2022-12-07T18:00:02.424Z,0.5
2022-12-07T18:20:03.187Z,0.4
2022-12-07T18:40:02.896Z,0.2
2022-12-07T19:00:02.470Z,0.1
2022-12-07T19:20:02.266Z,0
2022-12-07T19:40:03.088Z,-0.2
2022-12-07T20:00:02.635Z,-0.3
2022-12-07T20:20:02.631Z,-0.5
2022-12-07T20:40:03.213Z,-0.6
2022-12-07T21:00:02.797Z,-0.6
2022-12-07T21:20:02.706Z,-0.8
2022-12-07T21:40:03.287Z,-0.9
2022-12-07T22:00:02.747Z,-1
2022-12-07T22:20:02.534Z,-1.2
2022-12-07T22:40:03.054Z,-0.9
2022-12-07T23:00:02.841Z,-1
2022-12-07T23:20:03.002Z,-1
2022-12-07T23:40:02.456Z,-1
